sensor_id;sensor_type;location;lat;lon;timestamp;temperature;humidity
23744;DHT22;12052;53.478;10.182;2024-02-28T00:02:11;3.60;99.90
23744;DHT22;12052;53.478;10.182;2024-02-28T00:04:39;3.60;99.90
23744;DHT22;12052;53.478;10.182;2024-02-28T00:07:05;3.60;99.90
23744;DHT22;12052;53.478;10.182;2024-02-28T00:09:30;3.50;99.90
23744;DHT22;12052;53.478;10.182;2024-02-28T00:11:56;3.50;99.90
23744;DHT22;12052;53.478;10.182;2024-02-28T00:14:22;3.50;99.90
23744;DHT22;12052;53.478;10.182;2024-02-28T00:16:47;3.40;99.90
23744;DHT22;12052;53.478;10.182;2024-02-28T00:19:13;3.40;99.90
23744;DHT22;12052;53.478;10.182;2024-02-28T00:21:39;3.30;99.90
23744;DHT22;12052;53.478;10.182;2024-02-28T00:24:08;3.40;99.90
23744;DHT22;12052;53.478;10.182;2024-02-28T00:26:34;3.30;99.90
23744;DHT22;12052;53.478;10.182;2024-02-28T00:28:59;3.30;99.90
23744;DHT22;12052;53.478;10.182;2024-02-28T00:31:25;3.30;99.90
23744;DHT22;12052;53.478;10.182;2024-02-28T00:33:51;3.30;99.90
23744;DHT22;12052;53.478;10.182;2024-02-28T00:36:16;3.30;99.90
23744;DHT22;12052;53.478;10.182;2024-02-28T00:38:42;3.30;99.90
23744;DHT22;12052;53.478;10.182;2024-02-28T00:41:08;3.30;99.90
23744;DHT22;12052;53.478;10.182;2024-02-28T00:43:34;3.30;99.90
23744;DHT22;12052;53.478;10.182;2024-02-28T00:45:59;3.30;99.90
23744;DHT22;12052;53.478;10.182;2024-02-28T00:48:25;3.20;99.90
23744;DHT22;12052;53.478;10.182;2024-02-28T00:50:52;3.20;99.90
23744;DHT22;12052;53.478;10.182;2024-02-28T00:53:18;3.20;99.90
23744;DHT22;12052;53.478;10.182;2024-02-28T00:55:44;3.20;99.90
23744;DHT22;12052;53.478;10.182;2024-02-28T00:58:10;3.20;99.90
23744;DHT22;12052;53.478;10.182;2024-02-28T01:00:35;3.10;99.90
23744;DHT22;12052;53.478;10.182;2024-02-28T01:03:01;3.10;99.90
23744;DHT22;12052;53.478;10.182;2024-02-28T01:05:30;3.00;99.90
23744;DHT22;12052;53.478;10.182;2024-02-28T01:07:56;3.00;99.90
23744;DHT22;12052;53.478;10.182;2024-02-28T01:10:22;3.00;99.90
23744;DHT22;12052;53.478;10.182;2024-02-28T01:12:48;2.90;99.90
23744;DHT22;12052;53.478;10.182;2024-02-28T01:15:13;2.90;99.90
23744;DHT22;12052;53.478;10.182;2024-02-28T01:17:39;2.90;99.90
23744;DHT22;12052;53.478;10.182;2024-02-28T01:20:06;2.80;99.90
23744;DHT22;12052;53.478;10.182;2024-02-28T01:22:33;2.80;99.90
23744;DHT22;12052;53.478;10.182;2024-02-28T01:24:58;2.80;99.90
23744;DHT22;12052;53.478;10.182;2024-02-28T01:27:24;2.80;99.90
23744;DHT22;12052;53.478;10.182;2024-02-28T01:29:50;2.90;99.90
23744;DHT22;12052;53.478;10.182;2024-02-28T01:32:15;2.80;99.90
23744;DHT22;12052;53.478;10.182;2024-02-28T01:34:41;2.80;99.90
23744;DHT22;12052;53.478;10.182;2024-02-28T01:37:06;2.80;99.90
23744;DHT22;12052;53.478;10.182;2024-02-28T01:39:32;2.90;99.90
23744;DHT22;12052;53.478;10.182;2024-02-28T01:41:58;2.90;99.90
23744;DHT22;12052;53.478;10.182;2024-02-28T01:44:23;2.90;99.90
23744;DHT22;12052;53.478;10.182;2024-02-28T01:46:49;2.90;99.90
23744;DHT22;12052;53.478;10.182;2024-02-28T01:49:16;2.80;99.90
23744;DHT22;12052;53.478;10.182;2024-02-28T01:51:42;2.80;99.90
23744;DHT22;12052;53.478;10.182;2024-02-28T01:54:10;2.80;99.90
23744;DHT22;12052;53.478;10.182;2024-02-28T01:56:37;2.80;99.90
23744;DHT22;12052;53.478;10.182;2024-02-28T01:59:04;2.80;99.90
23744;DHT22;12052;53.478;10.182;2024-02-28T02:01:29;2.80;99.90
23744;DHT22;12052;53.478;10.182;2024-02-28T02:03:55;2.90;99.90
23744;DHT22;12052;53.478;10.182;2024-02-28T02:06:22;2.80;99.90
23744;DHT22;12052;53.478;10.182;2024-02-28T02:08:48;2.80;99.90
23744;DHT22;12052;53.478;10.182;2024-02-28T02:11:17;2.80;99.90
23744;DHT22;12052;53.478;10.182;2024-02-28T02:13:53;2.80;99.90
23744;DHT22;12052;53.478;10.182;2024-02-28T02:16:19;2.80;99.90
23744;DHT22;12052;53.478;10.182;2024-02-28T02:18:48;2.80;99.90
23744;DHT22;12052;53.478;10.182;2024-02-28T02:21:18;2.80;99.90
23744;DHT22;12052;53.478;10.182;2024-02-28T02:23:44;2.80;99.90
23744;DHT22;12052;53.478;10.182;2024-02-28T02:26:09;2.80;99.90
23744;DHT22;12052;53.478;10.182;2024-02-28T02:28:35;2.80;99.90
23744;DHT22;12052;53.478;10.182;2024-02-28T02:31:00;2.80;99.90
23744;DHT22;12052;53.478;10.182;2024-02-28T02:33:26;2.70;99.90
23744;DHT22;12052;53.478;10.182;2024-02-28T02:35:53;2.70;99.90
23744;DHT22;12052;53.478;10.182;2024-02-28T02:38:18;2.70;99.90
23744;DHT22;12052;53.478;10.182;2024-02-28T02:40:51;2.70;99.90
23744;DHT22;12052;53.478;10.182;2024-02-28T02:43:17;2.70;99.90
23744;DHT22;12052;53.478;10.182;2024-02-28T02:45:43;2.70;99.90
23744;DHT22;12052;53.478;10.182;2024-02-28T02:48:09;2.70;99.90
23744;DHT22;12052;53.478;10.182;2024-02-28T02:50:35;2.70;99.90
23744;DHT22;12052;53.478;10.182;2024-02-28T02:53:01;2.80;99.90
23744;DHT22;12052;53.478;10.182;2024-02-28T02:55:27;2.70;99.90
23744;DHT22;12052;53.478;10.182;2024-02-28T02:57:53;2.80;99.90
23744;DHT22;12052;53.478;10.182;2024-02-28T03:00:18;2.80;99.90
23744;DHT22;12052;53.478;10.182;2024-02-28T03:02:44;2.80;99.90
23744;DHT22;12052;53.478;10.182;2024-02-28T03:05:10;2.80;99.90
23744;DHT22;12052;53.478;10.182;2024-02-28T03:07:35;2.80;99.90
23744;DHT22;12052;53.478;10.182;2024-02-28T03:10:01;2.80;99.90
23744;DHT22;12052;53.478;10.182;2024-02-28T03:12:27;2.80;99.90
23744;DHT22;12052;53.478;10.182;2024-02-28T03:14:52;2.80;99.90
23744;DHT22;12052;53.478;10.182;2024-02-28T03:17:18;2.80;99.90
23744;DHT22;12052;53.478;10.182;2024-02-28T03:19:44;2.80;99.90
23744;DHT22;12052;53.478;10.182;2024-02-28T03:22:09;2.80;99.90
23744;DHT22;12052;53.478;10.182;2024-02-28T03:24:35;2.80;99.90
23744;DHT22;12052;53.478;10.182;2024-02-28T03:27:04;2.70;99.90
23744;DHT22;12052;53.478;10.182;2024-02-28T03:29:30;2.80;99.90
23744;DHT22;12052;53.478;10.182;2024-02-28T03:31:57;2.80;99.90
23744;DHT22;12052;53.478;10.182;2024-02-28T03:34:23;2.80;99.90
23744;DHT22;12052;53.478;10.182;2024-02-28T03:36:48;2.80;99.90
23744;DHT22;12052;53.478;10.182;2024-02-28T03:39:14;2.80;99.90
23744;DHT22;12052;53.478;10.182;2024-02-28T03:41:39;2.80;99.90
23744;DHT22;12052;53.478;10.182;2024-02-28T03:44:05;2.80;99.90
23744;DHT22;12052;53.478;10.182;2024-02-28T03:46:31;2.80;99.90
23744;DHT22;12052;53.478;10.182;2024-02-28T03:48:57;2.80;99.90
23744;DHT22;12052;53.478;10.182;2024-02-28T03:51:22;2.90;99.90
23744;DHT22;12052;53.478;10.182;2024-02-28T03:53:48;2.90;99.90
23744;DHT22;12052;53.478;10.182;2024-02-28T03:56:21;2.90;99.90
23744;DHT22;12052;53.478;10.182;2024-02-28T03:58:46;2.90;99.90
23744;DHT22;12052;53.478;10.182;2024-02-28T04:01:12;2.90;99.90
23744;DHT22;12052;53.478;10.182;2024-02-28T04:03:38;2.90;99.90
23744;DHT22;12052;53.478;10.182;2024-02-28T04:06:04;3.00;99.90
23744;DHT22;12052;53.478;10.182;2024-02-28T04:08:30;3.00;99.90
23744;DHT22;12052;53.478;10.182;2024-02-28T04:10:55;3.00;99.90
23744;DHT22;12052;53.478;10.182;2024-02-28T04:13:21;3.00;99.90
23744;DHT22;12052;53.478;10.182;2024-02-28T04:15:46;3.00;99.90
23744;DHT22;12052;53.478;10.182;2024-02-28T04:18:12;3.00;99.90
23744;DHT22;12052;53.478;10.182;2024-02-28T04:20:37;3.00;99.90
23744;DHT22;12052;53.478;10.182;2024-02-28T04:23:04;3.00;99.90
23744;DHT22;12052;53.478;10.182;2024-02-28T04:25:29;2.90;99.90
23744;DHT22;12052;53.478;10.182;2024-02-28T04:27:55;3.00;99.90
23744;DHT22;12052;53.478;10.182;2024-02-28T04:30:22;2.90;99.90
23744;DHT22;12052;53.478;10.182;2024-02-28T04:32:48;2.90;99.90
23744;DHT22;12052;53.478;10.182;2024-02-28T04:35:14;2.90;99.90
23744;DHT22;12052;53.478;10.182;2024-02-28T04:37:44;2.80;99.90
23744;DHT22;12052;53.478;10.182;2024-02-28T04:40:10;2.80;99.90
23744;DHT22;12052;53.478;10.182;2024-02-28T04:42:36;2.80;99.90
23744;DHT22;12052;53.478;10.182;2024-02-28T04:45:01;2.80;99.90
23744;DHT22;12052;53.478;10.182;2024-02-28T04:47:28;2.80;99.90
23744;DHT22;12052;53.478;10.182;2024-02-28T04:49:53;2.80;99.90
23744;DHT22;12052;53.478;10.182;2024-02-28T04:52:19;2.80;99.90
23744;DHT22;12052;53.478;10.182;2024-02-28T04:54:45;2.80;99.90
23744;DHT22;12052;53.478;10.182;2024-02-28T04:57:11;2.90;99.90
23744;DHT22;12052;53.478;10.182;2024-02-28T04:59:36;2.80;99.90
23744;DHT22;12052;53.478;10.182;2024-02-28T05:02:02;2.80;99.90
23744;DHT22;12052;53.478;10.182;2024-02-28T05:04:27;2.80;99.90
23744;DHT22;12052;53.478;10.182;2024-02-28T05:06:53;2.80;99.90
23744;DHT22;12052;53.478;10.182;2024-02-28T05:09:18;2.80;99.90
23744;DHT22;12052;53.478;10.182;2024-02-28T05:11:44;2.80;99.90
23744;DHT22;12052;53.478;10.182;2024-02-28T05:14:10;2.80;99.90
23744;DHT22;12052;53.478;10.182;2024-02-28T05:16:36;2.80;99.90
23744;DHT22;12052;53.478;10.182;2024-02-28T05:19:02;2.80;99.90
23744;DHT22;12052;53.478;10.182;2024-02-28T05:21:29;2.70;99.90
23744;DHT22;12052;53.478;10.182;2024-02-28T05:23:55;2.80;99.90
23744;DHT22;12052;53.478;10.182;2024-02-28T05:26:20;2.70;99.90
23744;DHT22;12052;53.478;10.182;2024-02-28T05:28:46;2.70;99.90
23744;DHT22;12052;53.478;10.182;2024-02-28T05:31:25;2.70;99.90
23744;DHT22;12052;53.478;10.182;2024-02-28T05:33:52;2.70;99.90
23744;DHT22;12052;53.478;10.182;2024-02-28T05:36:20;2.70;99.90
23744;DHT22;12052;53.478;10.182;2024-02-28T05:38:45;2.70;99.90
23744;DHT22;12052;53.478;10.182;2024-02-28T05:41:11;2.60;99.90
23744;DHT22;12052;53.478;10.182;2024-02-28T05:43:37;2.60;99.90
23744;DHT22;12052;53.478;10.182;2024-02-28T05:46:03;2.60;99.90
23744;DHT22;12052;53.478;10.182;2024-02-28T05:48:29;2.60;99.90
23744;DHT22;12052;53.478;10.182;2024-02-28T05:50:54;2.60;99.90
23744;DHT22;12052;53.478;10.182;2024-02-28T05:53:20;2.60;99.90
23744;DHT22;12052;53.478;10.182;2024-02-28T05:55:46;2.60;99.90
23744;DHT22;12052;53.478;10.182;2024-02-28T05:58:13;2.60;99.90
23744;DHT22;12052;53.478;10.182;2024-02-28T06:00:38;2.70;99.90
23744;DHT22;12052;53.478;10.182;2024-02-28T06:03:04;2.70;99.90
23744;DHT22;12052;53.478;10.182;2024-02-28T06:05:30;2.70;99.90
23744;DHT22;12052;53.478;10.182;2024-02-28T06:07:56;2.60;99.90
23744;DHT22;12052;53.478;10.182;2024-02-28T06:10:21;2.50;99.90
23744;DHT22;12052;53.478;10.182;2024-02-28T06:12:47;2.60;99.90
23744;DHT22;12052;53.478;10.182;2024-02-28T06:15:13;2.60;99.90
23744;DHT22;12052;53.478;10.182;2024-02-28T06:17:39;2.60;99.90
23744;DHT22;12052;53.478;10.182;2024-02-28T06:20:05;2.70;99.90
23744;DHT22;12052;53.478;10.182;2024-02-28T06:22:31;2.70;99.90
23744;DHT22;12052;53.478;10.182;2024-02-28T06:24:57;2.60;99.90
23744;DHT22;12052;53.478;10.182;2024-02-28T06:27:22;2.60;99.90
23744;DHT22;12052;53.478;10.182;2024-02-28T06:29:48;2.60;99.90
23744;DHT22;12052;53.478;10.182;2024-02-28T06:32:14;2.60;99.90
23744;DHT22;12052;53.478;10.182;2024-02-28T06:34:40;2.60;99.90
23744;DHT22;12052;53.478;10.182;2024-02-28T06:37:08;2.50;99.90
23744;DHT22;12052;53.478;10.182;2024-02-28T06:39:33;2.50;99.90
23744;DHT22;12052;53.478;10.182;2024-02-28T06:41:59;2.60;99.90
23744;DHT22;12052;53.478;10.182;2024-02-28T06:44:24;2.60;99.90
23744;DHT22;12052;53.478;10.182;2024-02-28T06:46:50;2.50;99.90
23744;DHT22;12052;53.478;10.182;2024-02-28T06:49:16;2.60;99.90
23744;DHT22;12052;53.478;10.182;2024-02-28T06:51:44;2.60;99.90
23744;DHT22;12052;53.478;10.182;2024-02-28T06:54:10;2.70;99.90
23744;DHT22;12052;53.478;10.182;2024-02-28T06:56:36;2.60;99.90
23744;DHT22;12052;53.478;10.182;2024-02-28T06:59:02;2.60;99.90
23744;DHT22;12052;53.478;10.182;2024-02-28T07:01:29;2.60;99.90
23744;DHT22;12052;53.478;10.182;2024-02-28T07:03:54;2.70;99.90
23744;DHT22;12052;53.478;10.182;2024-02-28T07:06:20;2.70;99.90
23744;DHT22;12052;53.478;10.182;2024-02-28T07:08:46;2.70;99.90
23744;DHT22;12052;53.478;10.182;2024-02-28T07:11:15;2.70;99.90
23744;DHT22;12052;53.478;10.182;2024-02-28T07:13:41;2.70;99.90
23744;DHT22;12052;53.478;10.182;2024-02-28T07:16:07;2.70;99.90
23744;DHT22;12052;53.478;10.182;2024-02-28T07:18:33;2.70;99.90
23744;DHT22;12052;53.478;10.182;2024-02-28T07:20:58;2.80;99.90
23744;DHT22;12052;53.478;10.182;2024-02-28T07:23:24;2.80;99.90
23744;DHT22;12052;53.478;10.182;2024-02-28T07:25:50;2.90;99.90
23744;DHT22;12052;53.478;10.182;2024-02-28T07:28:16;2.90;99.90
23744;DHT22;12052;53.478;10.182;2024-02-28T07:30:42;2.90;99.90
23744;DHT22;12052;53.478;10.182;2024-02-28T07:33:09;2.90;99.90
23744;DHT22;12052;53.478;10.182;2024-02-28T07:35:48;2.90;99.90
23744;DHT22;12052;53.478;10.182;2024-02-28T07:38:14;3.00;99.90
23744;DHT22;12052;53.478;10.182;2024-02-28T07:40:39;3.00;99.90
23744;DHT22;12052;53.478;10.182;2024-02-28T07:43:05;3.00;99.90
23744;DHT22;12052;53.478;10.182;2024-02-28T07:45:31;3.10;99.90
23744;DHT22;12052;53.478;10.182;2024-02-28T07:47:56;3.00;99.90
23744;DHT22;12052;53.478;10.182;2024-02-28T07:50:22;3.00;99.90
23744;DHT22;12052;53.478;10.182;2024-02-28T07:52:47;3.00;99.90
23744;DHT22;12052;53.478;10.182;2024-02-28T07:55:13;3.10;99.90
23744;DHT22;12052;53.478;10.182;2024-02-28T07:57:38;3.10;99.90
23744;DHT22;12052;53.478;10.182;2024-02-28T08:00:04;3.20;99.90
23744;DHT22;12052;53.478;10.182;2024-02-28T08:02:30;3.20;99.90
23744;DHT22;12052;53.478;10.182;2024-02-28T08:04:56;3.20;99.90
23744;DHT22;12052;53.478;10.182;2024-02-28T08:07:22;3.20;99.90
23744;DHT22;12052;53.478;10.182;2024-02-28T08:09:47;3.20;99.90
23744;DHT22;12052;53.478;10.182;2024-02-28T08:12:13;3.20;99.90
23744;DHT22;12052;53.478;10.182;2024-02-28T08:14:38;3.20;99.90
23744;DHT22;12052;53.478;10.182;2024-02-28T08:17:04;3.10;99.90
23744;DHT22;12052;53.478;10.182;2024-02-28T08:19:30;3.30;99.90
23744;DHT22;12052;53.478;10.182;2024-02-28T08:21:55;3.50;99.90
23744;DHT22;12052;53.478;10.182;2024-02-28T08:24:21;3.70;99.90
23744;DHT22;12052;53.478;10.182;2024-02-28T08:26:46;3.90;99.90
23744;DHT22;12052;53.478;10.182;2024-02-28T08:29:12;4.00;99.90
23744;DHT22;12052;53.478;10.182;2024-02-28T08:31:42;4.00;99.90
23744;DHT22;12052;53.478;10.182;2024-02-28T08:34:08;4.20;99.90
23744;DHT22;12052;53.478;10.182;2024-02-28T08:36:34;4.30;99.90
23744;DHT22;12052;53.478;10.182;2024-02-28T08:38:59;4.30;99.90
23744;DHT22;12052;53.478;10.182;2024-02-28T08:41:25;4.40;99.90
23744;DHT22;12052;53.478;10.182;2024-02-28T08:43:50;4.50;99.90
23744;DHT22;12052;53.478;10.182;2024-02-28T08:46:16;4.50;99.90
23744;DHT22;12052;53.478;10.182;2024-02-28T08:48:42;4.50;99.90
23744;DHT22;12052;53.478;10.182;2024-02-28T08:51:08;4.60;99.90
23744;DHT22;12052;53.478;10.182;2024-02-28T08:53:33;4.70;99.90
23744;DHT22;12052;53.478;10.182;2024-02-28T08:55:59;4.70;99.90
23744;DHT22;12052;53.478;10.182;2024-02-28T08:58:24;4.80;99.90
23744;DHT22;12052;53.478;10.182;2024-02-28T09:00:50;4.70;99.90
23744;DHT22;12052;53.478;10.182;2024-02-28T09:03:16;4.90;99.90
23744;DHT22;12052;53.478;10.182;2024-02-28T09:05:42;5.00;99.90
23744;DHT22;12052;53.478;10.182;2024-02-28T09:08:07;5.00;99.90
23744;DHT22;12052;53.478;10.182;2024-02-28T09:10:33;5.20;99.90
23744;DHT22;12052;53.478;10.182;2024-02-28T09:13:00;5.30;99.90
23744;DHT22;12052;53.478;10.182;2024-02-28T09:15:25;5.60;99.90
23744;DHT22;12052;53.478;10.182;2024-02-28T09:17:51;5.90;99.90
23744;DHT22;12052;53.478;10.182;2024-02-28T09:20:17;6.00;99.90
23744;DHT22;12052;53.478;10.182;2024-02-28T09:22:43;6.00;99.90
23744;DHT22;12052;53.478;10.182;2024-02-28T09:25:08;6.10;99.90
23744;DHT22;12052;53.478;10.182;2024-02-28T09:27:35;6.30;99.90
23744;DHT22;12052;53.478;10.182;2024-02-28T09:30:01;6.30;99.90
23744;DHT22;12052;53.478;10.182;2024-02-28T09:32:27;6.20;99.90
23744;DHT22;12052;53.478;10.182;2024-02-28T09:34:53;6.20;99.90
23744;DHT22;12052;53.478;10.182;2024-02-28T09:37:19;6.20;99.90
23744;DHT22;12052;53.478;10.182;2024-02-28T09:39:46;6.30;99.90
23744;DHT22;12052;53.478;10.182;2024-02-28T09:42:11;6.50;99.90
23744;DHT22;12052;53.478;10.182;2024-02-28T09:44:39;6.50;99.90
23744;DHT22;12052;53.478;10.182;2024-02-28T09:47:05;6.50;99.90
23744;DHT22;12052;53.478;10.182;2024-02-28T09:49:31;6.50;99.90
23744;DHT22;12052;53.478;10.182;2024-02-28T09:51:58;6.30;99.90
23744;DHT22;12052;53.478;10.182;2024-02-28T09:54:25;6.30;99.90
23744;DHT22;12052;53.478;10.182;2024-02-28T09:56:51;6.30;99.90
23744;DHT22;12052;53.478;10.182;2024-02-28T09:59:18;6.30;99.90
23744;DHT22;12052;53.478;10.182;2024-02-28T10:01:57;6.40;99.90
23744;DHT22;12052;53.478;10.182;2024-02-28T10:04:26;6.50;99.90
23744;DHT22;12052;53.478;10.182;2024-02-28T10:06:56;6.70;99.90
23744;DHT22;12052;53.478;10.182;2024-02-28T10:09:21;6.90;99.90
23744;DHT22;12052;53.478;10.182;2024-02-28T10:11:47;7.20;99.90
23744;DHT22;12052;53.478;10.182;2024-02-28T10:14:17;7.30;99.90
23744;DHT22;12052;53.478;10.182;2024-02-28T10:16:42;7.50;99.90
23744;DHT22;12052;53.478;10.182;2024-02-28T10:19:08;7.60;99.90
23744;DHT22;12052;53.478;10.182;2024-02-28T10:21:34;7.80;99.90
23744;DHT22;12052;53.478;10.182;2024-02-28T10:23:59;7.90;99.90
23744;DHT22;12052;53.478;10.182;2024-02-28T10:26:25;7.90;99.90
23744;DHT22;12052;53.478;10.182;2024-02-28T10:28:51;7.90;99.90
23744;DHT22;12052;53.478;10.182;2024-02-28T10:31:17;7.80;99.90
23744;DHT22;12052;53.478;10.182;2024-02-28T10:33:42;7.70;99.90
23744;DHT22;12052;53.478;10.182;2024-02-28T10:36:08;7.90;99.90
23744;DHT22;12052;53.478;10.182;2024-02-28T10:38:34;8.20;99.90
23744;DHT22;12052;53.478;10.182;2024-02-28T10:41:02;8.30;99.90
23744;DHT22;12052;53.478;10.182;2024-02-28T10:43:28;8.40;99.90
23744;DHT22;12052;53.478;10.182;2024-02-28T10:46:00;8.30;99.90
23744;DHT22;12052;53.478;10.182;2024-02-28T10:48:27;8.40;99.90
23744;DHT22;12052;53.478;10.182;2024-02-28T10:50:53;8.40;99.90
23744;DHT22;12052;53.478;10.182;2024-02-28T10:53:36;8.40;99.90
23744;DHT22;12052;53.478;10.182;2024-02-28T10:56:05;8.20;99.90
23744;DHT22;12052;53.478;10.182;2024-02-28T10:58:35;7.90;99.90
23744;DHT22;12052;53.478;10.182;2024-02-28T11:01:02;7.70;99.90
23744;DHT22;12052;53.478;10.182;2024-02-28T11:03:28;7.70;99.90
23744;DHT22;12052;53.478;10.182;2024-02-28T11:05:55;7.70;99.90
23744;DHT22;12052;53.478;10.182;2024-02-28T11:08:22;7.80;99.90
23744;DHT22;12052;53.478;10.182;2024-02-28T11:10:54;7.90;99.90
23744;DHT22;12052;53.478;10.182;2024-02-28T11:13:23;8.00;99.90
23744;DHT22;12052;53.478;10.182;2024-02-28T11:15:49;8.00;99.90
23744;DHT22;12052;53.478;10.182;2024-02-28T11:18:15;8.00;99.90
23744;DHT22;12052;53.478;10.182;2024-02-28T11:20:40;8.10;99.90
23744;DHT22;12052;53.478;10.182;2024-02-28T11:23:06;8.10;99.90
23744;DHT22;12052;53.478;10.182;2024-02-28T11:25:32;8.10;99.90
23744;DHT22;12052;53.478;10.182;2024-02-28T11:27:58;8.20;99.90
23744;DHT22;12052;53.478;10.182;2024-02-28T11:30:25;8.40;99.90
23744;DHT22;12052;53.478;10.182;2024-02-28T11:32:54;8.30;99.90
23744;DHT22;12052;53.478;10.182;2024-02-28T11:35:20;8.40;99.90
23744;DHT22;12052;53.478;10.182;2024-02-28T11:37:47;8.30;99.90
23744;DHT22;12052;53.478;10.182;2024-02-28T11:40:13;8.20;99.90
23744;DHT22;12052;53.478;10.182;2024-02-28T11:42:39;8.40;99.90
23744;DHT22;12052;53.478;10.182;2024-02-28T11:45:05;8.40;99.90
23744;DHT22;12052;53.478;10.182;2024-02-28T11:47:35;8.30;99.90
23744;DHT22;12052;53.478;10.182;2024-02-28T11:50:02;8.40;99.90
23744;DHT22;12052;53.478;10.182;2024-02-28T11:52:30;8.40;99.90
23744;DHT22;12052;53.478;10.182;2024-02-28T11:54:56;8.60;99.90
23744;DHT22;12052;53.478;10.182;2024-02-28T11:57:22;8.30;99.90
23744;DHT22;12052;53.478;10.182;2024-02-28T11:59:48;8.40;99.90
23744;DHT22;12052;53.478;10.182;2024-02-28T12:02:15;8.30;99.90
23744;DHT22;12052;53.478;10.182;2024-02-28T12:04:44;8.40;99.90
23744;DHT22;12052;53.478;10.182;2024-02-28T12:07:13;8.40;99.90
23744;DHT22;12052;53.478;10.182;2024-02-28T12:09:39;8.40;99.90
23744;DHT22;12052;53.478;10.182;2024-02-28T12:12:06;8.40;99.90
23744;DHT22;12052;53.478;10.182;2024-02-28T12:14:35;8.30;99.90
23744;DHT22;12052;53.478;10.182;2024-02-28T12:17:01;8.40;99.90
23744;DHT22;12052;53.478;10.182;2024-02-28T12:19:27;8.40;99.90
23744;DHT22;12052;53.478;10.182;2024-02-28T12:21:54;8.40;99.90
23744;DHT22;12052;53.478;10.182;2024-02-28T12:24:20;8.50;99.90
23744;DHT22;12052;53.478;10.182;2024-02-28T12:26:46;8.50;99.90
23744;DHT22;12052;53.478;10.182;2024-02-28T12:29:11;8.50;99.90
23744;DHT22;12052;53.478;10.182;2024-02-28T12:31:37;8.50;99.90
23744;DHT22;12052;53.478;10.182;2024-02-28T12:34:03;8.60;99.90
23744;DHT22;12052;53.478;10.182;2024-02-28T12:36:31;8.40;99.90
23744;DHT22;12052;53.478;10.182;2024-02-28T12:38:58;8.50;99.90
23744;DHT22;12052;53.478;10.182;2024-02-28T12:41:25;8.50;99.90
23744;DHT22;12052;53.478;10.182;2024-02-28T12:43:51;8.60;99.90
23744;DHT22;12052;53.478;10.182;2024-02-28T12:46:17;8.60;99.90
23744;DHT22;12052;53.478;10.182;2024-02-28T12:48:42;8.50;99.90
23744;DHT22;12052;53.478;10.182;2024-02-28T12:51:12;8.60;99.90
23744;DHT22;12052;53.478;10.182;2024-02-28T12:53:45;8.50;99.90
23744;DHT22;12052;53.478;10.182;2024-02-28T12:56:11;8.40;99.90
23744;DHT22;12052;53.478;10.182;2024-02-28T12:58:37;8.40;99.90
23744;DHT22;12052;53.478;10.182;2024-02-28T13:01:03;8.40;99.90
23744;DHT22;12052;53.478;10.182;2024-02-28T13:03:30;8.40;99.90
23744;DHT22;12052;53.478;10.182;2024-02-28T13:05:55;8.40;99.90
23744;DHT22;12052;53.478;10.182;2024-02-28T13:08:21;8.30;99.90
23744;DHT22;12052;53.478;10.182;2024-02-28T13:10:47;8.40;99.90
23744;DHT22;12052;53.478;10.182;2024-02-28T13:13:12;8.30;99.90
23744;DHT22;12052;53.478;10.182;2024-02-28T13:15:39;8.40;99.90
23744;DHT22;12052;53.478;10.182;2024-02-28T13:18:05;8.30;99.90
23744;DHT22;12052;53.478;10.182;2024-02-28T13:20:33;8.30;99.90
23744;DHT22;12052;53.478;10.182;2024-02-28T13:22:59;8.30;99.90
23744;DHT22;12052;53.478;10.182;2024-02-28T13:25:24;8.30;99.90
23744;DHT22;12052;53.478;10.182;2024-02-28T13:27:50;8.30;99.90
23744;DHT22;12052;53.478;10.182;2024-02-28T13:30:15;8.30;99.90
23744;DHT22;12052;53.478;10.182;2024-02-28T13:32:41;8.40;99.90
23744;DHT22;12052;53.478;10.182;2024-02-28T13:35:07;8.30;99.90
23744;DHT22;12052;53.478;10.182;2024-02-28T13:37:33;8.30;99.90
23744;DHT22;12052;53.478;10.182;2024-02-28T13:39:58;8.30;99.90
23744;DHT22;12052;53.478;10.182;2024-02-28T13:42:24;8.30;99.90
23744;DHT22;12052;53.478;10.182;2024-02-28T13:44:50;8.20;99.90
23744;DHT22;12052;53.478;10.182;2024-02-28T13:47:16;8.20;99.90
23744;DHT22;12052;53.478;10.182;2024-02-28T13:49:42;8.20;99.90
23744;DHT22;12052;53.478;10.182;2024-02-28T13:52:08;8.30;99.90
23744;DHT22;12052;53.478;10.182;2024-02-28T13:54:33;8.30;99.90
23744;DHT22;12052;53.478;10.182;2024-02-28T13:57:00;8.40;99.90
23744;DHT22;12052;53.478;10.182;2024-02-28T13:59:27;8.30;99.90
23744;DHT22;12052;53.478;10.182;2024-02-28T14:01:52;8.40;99.90
23744;DHT22;12052;53.478;10.182;2024-02-28T14:04:18;8.40;99.90
23744;DHT22;12052;53.478;10.182;2024-02-28T14:06:44;8.40;99.90
23744;DHT22;12052;53.478;10.182;2024-02-28T14:09:10;8.30;99.90
23744;DHT22;12052;53.478;10.182;2024-02-28T14:11:36;8.40;99.90
23744;DHT22;12052;53.478;10.182;2024-02-28T14:14:01;8.40;99.90
23744;DHT22;12052;53.478;10.182;2024-02-28T14:16:27;8.50;99.90
23744;DHT22;12052;53.478;10.182;2024-02-28T14:18:53;8.60;99.90
23744;DHT22;12052;53.478;10.182;2024-02-28T14:21:18;8.60;99.90
23744;DHT22;12052;53.478;10.182;2024-02-28T14:23:45;8.40;99.90
23744;DHT22;12052;53.478;10.182;2024-02-28T14:26:11;8.40;99.90
23744;DHT22;12052;53.478;10.182;2024-02-28T14:28:36;8.40;99.90
23744;DHT22;12052;53.478;10.182;2024-02-28T14:31:02;8.40;99.90
23744;DHT22;12052;53.478;10.182;2024-02-28T14:33:28;8.40;99.90
23744;DHT22;12052;53.478;10.182;2024-02-28T14:35:54;8.40;99.90
23744;DHT22;12052;53.478;10.182;2024-02-28T14:38:20;8.50;99.90
23744;DHT22;12052;53.478;10.182;2024-02-28T14:40:45;8.40;99.90
23744;DHT22;12052;53.478;10.182;2024-02-28T14:43:11;8.30;99.90
23744;DHT22;12052;53.478;10.182;2024-02-28T14:45:36;8.30;99.90
23744;DHT22;12052;53.478;10.182;2024-02-28T14:48:03;8.30;99.90
23744;DHT22;12052;53.478;10.182;2024-02-28T14:50:28;8.30;99.90
23744;DHT22;12052;53.478;10.182;2024-02-28T14:52:54;8.30;99.90
23744;DHT22;12052;53.478;10.182;2024-02-28T14:55:19;8.20;99.90
23744;DHT22;12052;53.478;10.182;2024-02-28T14:57:45;8.10;99.90
23744;DHT22;12052;53.478;10.182;2024-02-28T15:00:11;8.00;99.90
23744;DHT22;12052;53.478;10.182;2024-02-28T15:02:40;8.00;99.90
23744;DHT22;12052;53.478;10.182;2024-02-28T15:05:06;7.90;99.90
23744;DHT22;12052;53.478;10.182;2024-02-28T15:07:32;7.90;99.90
23744;DHT22;12052;53.478;10.182;2024-02-28T15:09:59;7.90;99.90
23744;DHT22;12052;53.478;10.182;2024-02-28T15:12:30;7.80;99.90
23744;DHT22;12052;53.478;10.182;2024-02-28T15:14:56;7.80;99.90
23744;DHT22;12052;53.478;10.182;2024-02-28T15:17:22;7.80;99.90
23744;DHT22;12052;53.478;10.182;2024-02-28T15:19:47;7.80;99.90
23744;DHT22;12052;53.478;10.182;2024-02-28T15:22:13;7.80;99.90
23744;DHT22;12052;53.478;10.182;2024-02-28T15:24:39;7.70;99.90